Time;durP1;ratioP1;P1;durP2;ratioP2;P2;SDS_P1;SDS_P2;PMS_P1;PMS_P2;Temp;Humidity;BMP_temperature;BMP_pressure;BME280_temperature;BME280_humidity;BME280_pressure;Samples;Min_cycle;Max_cycle;Signal;HPM_P1;HPM_P2
2023/07/14 00:01:57;;;;;;;348.60;174.40;;;;;;;20.57;100.00;99939.61;105781;1257;59606;-64
2023/07/14 00:04:32;;;;;;;117.90;55.20;;;;;;;20.59;100.00;99937.92;105418;1259;59746;-63
2023/07/14 00:07:00;;;;;;;219.10;103.20;;;;;;;20.58;100.00;99937.82;105162;1257;73040;-64
2023/07/14 00:09:29;;;;;;;353.90;193.60;;;;;;;20.60;100.00;99934.74;105032;1257;65755;-63
2023/07/14 00:11:56;;;;;;;77.10;29.90;;;;;;;20.59;100.00;99929.34;105471;1263;71529;-63
2023/07/14 00:14:23;;;;;;;20.20;8.30;;;;;;;20.57;100.00;99925.36;105128;1261;60666;-62
2023/07/14 00:16:52;;;;;;;257.40;144.20;;;;;;;20.53;100.00;99924.61;105411;1261;59595;-62
2023/07/14 00:19:19;;;;;;;224.40;108.70;;;;;;;20.49;100.00;99926.10;105254;1257;73090;-63
2023/07/14 00:21:46;;;;;;;169.70;101.00;;;;;;;20.45;100.00;99925.95;105732;1261;66431;-67
2023/07/14 00:24:15;;;;;;;249.50;103.50;;;;;;;20.41;100.00;99921.96;105187;1257;71800;-63
2023/07/14 00:26:45;;;;;;;204.50;92.20;;;;;;;20.38;100.00;99922.63;105536;1255;59724;-62
2023/07/14 00:29:34;;;;;;;332.20;150.30;;;;;;;20.35;100.00;99920.17;105206;1255;60396;-63
2023/07/14 00:32:17;;;;;;;153.70;68.90;;;;;;;20.31;100.00;99924.95;105356;1256;71741;-63
2023/07/14 00:34:44;;;;;;;5.40;3.20;;;;;;;20.28;100.00;99921.51;105284;1259;67981;-62
2023/07/14 00:37:11;;;;;;;54.50;25.00;;;;;;;20.26;100.00;99915.25;105212;1257;72734;-62
2023/07/14 00:39:39;;;;;;;165.90;73.20;;;;;;;20.26;100.00;99914.55;105472;1255;59532;-64
2023/07/14 00:42:11;;;;;;;231.60;120.20;;;;;;;20.25;100.00;99918.10;104949;1256;59654;-64
2023/07/14 00:44:38;;;;;;;221.50;113.00;;;;;;;20.24;100.00;99911.05;105320;1256;72658;-62
2023/07/14 00:47:17;;;;;;;277.10;116.70;;;;;;;20.22;100.00;99912.46;105203;1256;67256;-66
2023/07/14 00:49:44;;;;;;;194.40;96.10;;;;;;;20.19;100.00;99907.42;105267;1255;73284;-64
2023/07/14 00:52:19;;;;;;;165.00;99.90;;;;;;;20.15;100.00;99906.92;105173;1256;59644;-62
2023/07/14 00:54:51;;;;;;;26.20;13.30;;;;;;;20.11;100.00;99902.18;105251;1257;59996;-62
2023/07/14 00:57:21;;;;;;;32.90;14.30;;;;;;;20.09;100.00;99899.05;105240;1256;71926;-66
2023/07/14 00:59:47;;;;;;;45.40;19.30;;;;;;;20.07;100.00;99904.27;104746;1257;66066;-62
2023/07/14 01:02:15;;;;;;;109.70;45.20;;;;;;;20.05;100.00;99898.39;104957;1256;72780;-62
2023/07/14 01:04:55;;;;;;;216.50;111.40;;;;;;;20.00;100.00;99894.60;105326;1257;60261;-63
2023/07/14 01:07:26;;;;;;;37.40;15.10;;;;;;;19.96;100.00;99887.31;105357;1257;60716;-62
2023/07/14 01:09:54;;;;;;;162.70;78.00;;;;;;;19.91;100.00;99881.66;105058;1255;71731;-63
2023/07/14 01:12:21;;;;;;;224.80;110.20;;;;;;;19.83;100.00;99882.88;105152;1259;65995;-63
2023/07/14 01:14:50;;;;;;;8.40;4.40;;;;;;;19.75;100.00;99883.35;105203;1258;72665;-67
2023/07/14 01:17:18;;;;;;;10.50;4.70;;;;;;;19.69;100.00;99884.98;105221;1257;62505;-63
2023/07/14 01:19:56;;;;;;;110.30;49.50;;;;;;;19.64;100.00;99883.48;105131;1260;59693;-63
2023/07/14 01:22:45;;;;;;;28.80;11.70;;;;;;;19.61;100.00;99886.59;105030;1259;73173;-63
2023/07/14 01:25:41;;;;;;;21.70;9.00;;;;;;;19.58;100.00;99891.95;105189;1255;65929;-63
2023/07/14 01:28:09;;;;;;;26.70;14.90;;;;;;;19.57;100.00;99893.00;104989;1257;72813;-67
2023/07/14 01:30:37;;;;;;;5.60;3.50;;;;;;;19.59;100.00;99888.30;104916;1256;60908;-64
2023/07/14 01:33:16;;;;;;;12.60;5.50;;;;;;;19.61;100.00;99880.45;105046;1259;59732;-64
2023/07/14 01:35:59;;;;;;;108.00;42.50;;;;;;;19.65;100.00;99874.58;105283;1255;71800;-64
2023/07/14 01:38:26;;;;;;;32.10;14.30;;;;;;;19.67;100.00;99869.31;105199;1260;65956;-62
2023/07/14 01:40:53;;;;;;;20.20;11.80;;;;;;;19.68;100.00;99855.37;105168;1259;72482;-63
2023/07/14 01:43:21;;;;;;;24.00;12.70;;;;;;;19.68;100.00;99853.52;105224;1256;59700;-63
2023/07/14 01:46:01;;;;;;;20.30;8.30;;;;;;;19.65;100.00;99854.65;105545;1257;60038;-66
2023/07/14 01:48:34;;;;;;;6.00;3.70;;;;;;;19.59;100.00;99847.69;105015;1256;72863;-63
2023/07/14 01:51:03;;;;;;;30.30;16.60;;;;;;;19.53;100.00;99843.05;105062;1256;67356;-63
2023/07/14 01:53:42;;;;;;;17.30;10.30;;;;;;;19.46;100.00;99843.41;105071;1257;72482;-63
2023/07/14 01:56:14;;;;;;;13.40;7.60;;;;;;;19.40;100.00;99850.82;104988;1262;59724;-63
2023/07/14 01:59:12;;;;;;;29.40;13.60;;;;;;;19.34;100.00;99852.63;105239;1255;60220;-63
2023/07/14 02:01:41;;;;;;;39.00;18.80;;;;;;;19.27;100.00;99855.67;105261;1255;74214;-62
2023/07/14 02:04:11;;;;;;;5.90;3.50;;;;;;;19.21;100.00;99856.61;105113;1257;67313;-62
2023/07/14 02:06:38;;;;;;;24.90;12.50;;;;;;;19.19;100.00;99859.87;105195;1256;72627;-67
2023/07/14 02:09:06;;;;;;;10.20;5.10;;;;;;;19.21;100.00;99855.92;105286;1257;60768;-62
2023/07/14 02:11:34;;;;;;;7.10;2.90;;;;;;;19.26;100.00;99854.39;105260;1259;59553;-63
2023/07/14 02:14:01;;;;;;;38.90;15.20;;;;;;;19.34;100.00;99857.59;105612;1256;73303;-63
2023/07/14 02:16:28;;;;;;;7.50;3.10;;;;;;;19.43;100.00;99863.90;104975;1257;65873;-63
2023/07/14 02:18:55;;;;;;;3.50;2.10;;;;;;;19.51;100.00;99859.64;105173;1256;72676;-63
2023/07/14 02:21:28;;;;;;;6.00;2.90;;;;;;;19.59;100.00;99853.99;105131;1256;61086;-63
2023/07/14 02:23:55;;;;;;;23.60;10.30;;;;;;;19.66;100.00;99850.02;105150;1257;60944;-62
2023/07/14 02:26:31;;;;;;;28.10;11.50;;;;;;;19.74;100.00;99846.31;105541;1254;71838;-62
2023/07/14 02:28:58;;;;;;;136.10;65.30;;;;;;;19.81;100.00;99838.48;105754;1254;65915;-62
2023/07/14 02:31:35;;;;;;;147.20;58.50;;;;;;;19.88;100.00;99833.61;105509;1257;71207;-62
2023/07/14 02:34:03;;;;;;;7.20;2.50;;;;;;;19.95;100.00;99832.64;105648;1254;61981;-64
2023/07/14 02:36:42;;;;;;;173.50;64.90;;;;;;;20.02;100.00;99835.30;105610;1254;59330;-65
2023/07/14 02:39:10;;;;;;;84.10;24.60;;;;;;;20.08;100.00;99828.44;105536;1254;73049;-65
2023/07/14 02:41:39;;;;;;;118.10;47.50;;;;;;;20.13;100.00;99821.08;105738;1257;67216;-68
2023/07/14 02:44:08;;;;;;;235.40;109.90;;;;;;;20.20;100.00;99823.73;105472;1257;72885;-64
2023/07/14 02:46:41;;;;;;;68.30;32.70;;;;;;;20.25;100.00;99817.69;105000;1256;60759;-63
2023/07/14 02:49:08;;;;;;;7.80;4.00;;;;;;;20.32;100.00;99817.61;105385;1256;60147;-63
2023/07/14 02:51:36;;;;;;;5.40;3.10;;;;;;;20.38;100.00;99814.30;105235;1257;71870;-65
2023/07/14 02:54:04;;;;;;;141.00;58.40;;;;;;;20.43;100.00;99814.80;105661;1259;66995;-68
2023/07/14 02:56:32;;;;;;;201.40;97.60;;;;;;;20.49;100.00;99817.80;105531;1254;73059;-63
2023/07/14 02:58:59;;;;;;;190.90;83.20;;;;;;;20.55;100.00;99816.58;105307;1259;59737;-64
2023/07/14 03:01:32;;;;;;;332.10;162.20;;;;;;;20.62;100.00;99811.46;105311;1257;59584;-64
2023/07/14 03:03:59;;;;;;;210.70;86.20;;;;;;;20.68;100.00;99807.08;105823;1253;71845;-66
2023/07/14 03:06:26;;;;;;;389.60;187.40;;;;;;;20.71;100.00;99804.34;105377;1254;66610;-63
2023/07/14 03:08:55;;;;;;;56.80;32.00;;;;;;;20.74;100.00;99799.58;105301;1254;71766;-63
2023/07/14 03:11:22;;;;;;;91.80;48.10;;;;;;;20.77;100.00;99796.09;105422;1254;60747;-62
2023/07/14 03:13:52;;;;;;;165.80;70.50;;;;;;;20.83;100.00;99797.69;105166;1255;60827;-66
2023/07/14 03:16:19;;;;;;;203.80;95.20;;;;;;;20.90;100.00;99797.81;105647;1257;74070;-62
2023/07/14 03:18:46;;;;;;;211.50;95.40;;;;;;;20.99;100.00;99804.87;105367;1254;66992;-65
2023/07/14 03:21:13;;;;;;;244.70;121.70;;;;;;;21.06;100.00;99804.35;105553;1251;72462;-63
2023/07/14 03:23:41;;;;;;;207.30;123.50;;;;;;;21.11;100.00;99804.63;106299;1250;59598;-63
2023/07/14 03:26:10;;;;;;;115.80;44.20;;;;;;;21.21;100.00;99803.20;106009;1254;60830;-63
2023/07/14 03:28:38;;;;;;;16.10;8.00;;;;;;;21.37;100.00;99800.59;105658;1251;71821;-61
2023/07/14 03:31:06;;;;;;;346.70;161.60;;;;;;;21.74;100.00;99793.77;105851;1254;65860;-62
2023/07/14 03:33:34;;;;;;;530.50;303.80;;;;;;;22.44;100.00;99789.59;105666;1251;73172;-64
2023/07/14 03:36:06;;;;;;;738.90;452.40;;;;;;;23.33;100.00;99791.02;106546;1251;59800;-65
2023/07/14 03:38:37;;;;;;;714.90;472.00;;;;;;;24.31;100.00;99780.90;105740;1253;60294;-61
2023/07/14 03:41:04;;;;;;;636.00;445.90;;;;;;;25.21;100.00;99770.95;105584;1254;73174;-61
2023/07/14 03:43:31;;;;;;;584.00;427.10;;;;;;;25.99;100.00;99766.33;106001;1254;65891;-66
2023/07/14 03:45:59;;;;;;;427.70;350.00;;;;;;;26.65;100.00;99767.17;106713;1250;72671;-66
2023/07/14 03:48:25;;;;;;;355.10;282.80;;;;;;;27.24;100.00;99766.97;106095;1250;60408;-62
2023/07/14 03:50:53;;;;;;;280.30;223.40;;;;;;;27.58;100.00;99763.68;105448;1255;60429;-62
2023/07/14 03:53:20;;;;;;;144.30;129.10;;;;;;;27.65;100.00;99762.08;105175;1253;73988;-62
2023/07/14 03:55:48;;;;;;;128.10;115.20;;;;;;;27.71;100.00;99762.89;105754;1252;67326;-64
2023/07/14 03:58:14;;;;;;;94.00;85.20;;;;;;;28.13;100.00;99760.89;106693;1256;72445;-66
2023/07/14 04:00:42;;;;;;;78.20;71.10;;;;;;;28.83;100.00;99752.85;106601;1253;60514;-62
2023/07/14 04:03:09;;;;;;;23.70;21.90;;;;;;;29.62;100.00;99749.88;105425;1255;60390;-63
2023/07/14 04:05:37;;;;;;;13.00;11.90;;;;;;;30.37;100.00;99740.77;105820;1253;73845;-65
2023/07/14 04:08:04;;;;;;;5.00;2.60;;;;;;;31.05;100.00;99737.31;105336;1256;65998;-66
2023/07/14 04:10:31;;;;;;;4.80;2.80;;;;;;;31.75;96.97;99735.87;105618;1253;71229;-63
2023/07/14 04:12:59;;;;;;;3.40;2.30;;;;;;;32.40;87.70;99731.66;105491;1256;60540;-63
2023/07/14 04:15:26;;;;;;;4.50;2.40;;;;;;;32.97;78.63;99735.71;105600;1255;60429;-63
2023/07/14 04:17:53;;;;;;;5.40;2.20;;;;;;;33.36;68.25;99737.11;105296;1255;74406;-66
2023/07/14 04:20:20;;;;;;;5.90;2.10;;;;;;;33.53;67.62;99737.36;106143;1256;60529;-66
2023/07/14 04:22:48;;;;;;;3.20;2.10;;;;;;;33.84;66.56;99729.98;105546;1253;63949;-63
2023/07/14 04:25:15;;;;;;;4.30;2.40;;;;;;;34.18;61.00;99729.49;105435;1253;60450;-67
2023/07/14 04:27:43;;;;;;;3.50;2.00;;;;;;;34.38;58.83;99727.67;105620;1254;60352;-66
2023/07/14 04:30:11;;;;;;;4.80;2.10;;;;;;;34.64;57.30;99729.38;105630;1251;65267;-68
2023/07/14 04:32:39;;;;;;;3.70;2.50;;;;;;;34.99;56.60;99728.48;105660;1253;60437;-66
2023/07/14 04:35:07;;;;;;;5.00;2.10;;;;;;;35.23;53.91;99727.04;106084;1251;64103;-66
2023/07/14 04:37:34;;;;;;;4.50;2.10;;;;;;;34.99;53.34;99724.91;105675;1256;60335;-65
2023/07/14 04:40:04;;;;;;;5.90;2.60;;;;;;;34.18;54.86;99717.11;105965;1256;60401;-67
2023/07/14 04:42:31;;;;;;;4.80;2.40;;;;;;;32.90;62.51;99719.64;105478;1250;65324;-68
2023/07/14 04:44:58;;;;;;;4.90;2.30;;;;;;;31.60;78.53;99725.25;105599;1255;60443;-64
2023/07/14 04:47:25;;;;;;;4.70;2.60;;;;;;;30.51;94.43;99729.94;105486;1256;71440;-65
2023/07/14 04:49:52;;;;;;;4.80;2.80;;;;;;;29.67;100.00;99729.67;105513;1251;60301;-68
2023/07/14 04:52:20;;;;;;;4.70;2.50;;;;;;;28.93;100.00;99722.79;105523;1255;60628;-64
2023/07/14 04:54:47;;;;;;;4.60;2.50;;;;;;;28.33;100.00;99720.80;105592;1256;73817;-66
2023/07/14 04:57:14;;;;;;;4.40;2.90;;;;;;;27.95;100.00;99719.12;105580;1254;67078;-65
2023/07/14 04:59:43;;;;;;;5.10;3.10;;;;;;;27.69;100.00;99710.42;105844;1257;74593;-65
2023/07/14 05:02:10;;;;;;;4.90;2.80;;;;;;;27.45;100.00;99712.97;105935;1252;60447;-68
2023/07/14 05:04:39;;;;;;;7.90;6.20;;;;;;;27.25;100.00;99707.61;105581;1256;61172;-66
2023/07/14 05:07:26;;;;;;;19.40;17.70;;;;;;;26.96;100.00;99707.93;105695;1253;73556;-66
2023/07/14 05:09:52;;;;;;;28.80;26.40;;;;;;;26.74;100.00;99702.59;106309;1250;65134;-67
2023/07/14 05:12:20;;;;;;;79.70;72.60;;;;;;;26.52;100.00;99698.50;105752;1251;72580;-65
2023/07/14 05:14:47;;;;;;;94.90;86.50;;;;;;;26.32;100.00;99692.02;105993;1252;60543;-68
2023/07/14 05:17:15;;;;;;;240.40;215.60;;;;;;;26.11;100.00;99689.72;106135;1250;60577;-66
2023/07/14 05:19:42;;;;;;;210.40;188.60;;;;;;;25.85;100.00;99692.17;106023;1254;73884;-67
2023/07/14 05:22:09;;;;;;;218.30;190.20;;;;;;;25.65;100.00;99683.84;105654;1256;66902;-66
2023/07/14 05:24:36;;;;;;;264.20;230.00;;;;;;;25.47;100.00;99682.75;105710;1256;71551;-67
2023/07/14 05:27:03;;;;;;;352.70;289.00;;;;;;;25.28;100.00;99683.15;106609;1256;60394;-68
2023/07/14 05:29:30;;;;;;;407.80;350.60;;;;;;;25.12;100.00;99682.68;106089;1254;60412;-66
2023/07/14 05:31:57;;;;;;;416.30;344.70;;;;;;;25.05;100.00;99691.31;106021;1255;74010;-67
2023/07/14 05:34:24;;;;;;;371.00;284.30;;;;;;;25.03;100.00;99688.46;105816;1255;67033;-67
2023/07/14 05:36:51;;;;;;;429.30;322.20;;;;;;;25.02;100.00;99682.98;105868;1256;72523;-67
2023/07/14 05:39:20;;;;;;;512.90;380.60;;;;;;;25.02;100.00;99679.52;105841;1251;60420;-69
2023/07/14 05:41:47;;;;;;;693.40;472.50;;;;;;;25.09;100.00;99681.66;105870;1253;60342;-66
2023/07/14 05:44:14;;;;;;;726.10;509.80;;;;;;;25.16;100.00;99675.41;105880;1256;72108;-67
2023/07/14 05:46:41;;;;;;;677.20;487.00;;;;;;;25.26;100.00;99677.79;106176;1251;67760;-64
2023/07/14 05:49:08;;;;;;;713.30;535.80;;;;;;;25.36;100.00;99680.42;105763;1256;72473;-67
2023/07/14 05:51:36;;;;;;;684.20;462.50;;;;;;;25.45;100.00;99677.59;105801;1250;60500;-67
2023/07/14 05:54:03;;;;;;;564.30;417.40;;;;;;;25.49;100.00;99682.71;106173;1254;60441;-67
2023/07/14 05:56:30;;;;;;;801.50;542.10;;;;;;;25.50;100.00;99691.93;105761;1256;74134;-65
2023/07/14 05:58:57;;;;;;;487.70;367.00;;;;;;;25.50;100.00;99705.21;106156;1256;66312;-65
2023/07/14 06:01:24;;;;;;;774.10;522.90;;;;;;;25.54;100.00;99703.31;105944;1255;71317;-65
2023/07/14 06:03:51;;;;;;;565.40;419.20;;;;;;;25.66;100.00;99697.70;106015;1250;60444;-66
2023/07/14 06:06:19;;;;;;;548.80;383.40;;;;;;;25.82;100.00;99692.60;105968;1256;60521;-65
2023/07/14 06:08:49;;;;;;;630.60;473.50;;;;;;;25.99;100.00;99685.96;105883;1256;72602;-64
2023/07/14 06:11:16;;;;;;;627.30;450.30;;;;;;;26.26;100.00;99684.79;106367;1250;67074;-66
2023/07/14 06:13:44;;;;;;;477.00;355.70;;;;;;;26.81;100.00;99690.02;105938;1250;72818;-64
2023/07/14 06:16:11;;;;;;;447.70;346.50;;;;;;;27.48;100.00;99687.41;105887;1256;60470;-66
2023/07/14 06:18:39;;;;;;;363.20;287.70;;;;;;;28.03;100.00;99671.31;105973;1250;60409;-66
2023/07/14 06:21:08;;;;;;;315.50;231.10;;;;;;;28.49;100.00;99665.58;105888;1256;72563;-65
2023/07/14 06:23:34;;;;;;;172.50;153.60;;;;;;;29.20;100.00;99668.64;106015;1256;68800;-66
2023/07/14 06:26:02;;;;;;;86.90;78.30;;;;;;;29.71;100.00;99668.09;105831;1250;73114;-66
2023/07/14 06:28:31;;;;;;;46.30;42.40;;;;;;;29.89;100.00;99674.40;105866;1252;60434;-64
2023/07/14 06:31:04;;;;;;;43.00;39.70;;;;;;;30.01;100.00;99674.77;106060;1271;60671;-65
2023/07/14 06:33:32;;;;;;;22.20;20.40;;;;;;;29.89;100.00;99674.71;106218;1255;73677;-66
2023/07/14 06:36:00;;;;;;;15.90;14.30;;;;;;;29.55;100.00;99675.52;105909;1251;65750;-66
2023/07/14 06:38:28;;;;;;;26.80;24.80;;;;;;;29.05;100.00;99681.09;105820;1256;73106;-65
2023/07/14 06:41:00;;;;;;;31.40;27.50;;;;;;;28.62;100.00;99676.88;105932;1251;60813;-66
2023/07/14 06:43:29;;;;;;;47.10;43.30;;;;;;;28.34;100.00;99676.92;105766;1256;60415;-65
2023/07/14 06:45:56;;;;;;;53.60;49.10;;;;;;;28.25;100.00;99672.92;109297;1250;73921;-65
2023/07/14 06:48:27;;;;;;;64.40;58.30;;;;;;;28.20;100.00;99676.23;109293;1252;65684;-66
2023/07/14 06:50:55;;;;;;;83.10;74.80;;;;;;;28.22;100.00;99669.73;109211;1254;71502;-68
2023/07/14 06:53:23;;;;;;;66.50;60.40;;;;;;;28.40;100.00;99661.67;106713;1264;60540;-65
2023/07/14 06:55:50;;;;;;;42.40;38.50;;;;;;;28.92;100.00;99652.30;106246;1256;60408;-65
2023/07/14 06:58:17;;;;;;;46.70;42.70;;;;;;;29.50;100.00;99647.84;105954;1255;72470;-64
2023/07/14 07:00:44;;;;;;;29.40;27.20;;;;;;;30.12;100.00;99642.08;105909;1254;67224;-64
2023/07/14 07:03:11;;;;;;;12.80;11.70;;;;;;;30.76;100.00;99638.89;105922;1254;72548;-66
2023/07/14 07:05:42;;;;;;;6.80;5.80;;;;;;;31.06;100.00;99643.11;106362;1255;60636;-65
2023/07/14 07:08:15;;;;;;;6.40;5.40;;;;;;;31.05;100.00;99639.64;106248;1251;60586;-65
2023/07/14 07:10:43;;;;;;;6.00;4.30;;;;;;;30.98;100.00;99640.64;105841;1250;72684;-67
2023/07/14 07:13:10;;;;;;;5.80;4.30;;;;;;;30.94;100.00;99638.48;105985;1251;67295;-67
2023/07/14 07:15:38;;;;;;;5.30;4.10;;;;;;;30.83;100.00;99635.45;105551;1255;71453;-64
2023/07/14 07:18:06;;;;;;;5.50;4.10;;;;;;;30.70;100.00;99630.91;105910;1254;60660;-65
2023/07/14 07:20:38;;;;;;;5.10;4.60;;;;;;;30.97;100.00;99626.83;105974;1257;60395;-65
2023/07/14 07:23:05;;;;;;;6.00;4.20;;;;;;;31.46;100.00;99634.73;105948;1256;73693;-67
2023/07/14 07:25:32;;;;;;;8.90;4.30;;;;;;;32.04;100.00;99641.38;105861;1256;65966;-65
2023/07/14 07:27:59;;;;;;;4.60;3.50;;;;;;;32.22;100.00;99643.85;105859;1256;62707;-65
2023/07/14 07:30:27;;;;;;;5.10;3.90;;;;;;;32.06;100.00;99651.70;106143;1250;60465;-66
2023/07/14 07:32:54;;;;;;;8.50;3.80;;;;;;;31.67;100.00;99647.38;106219;1256;60533;-67
2023/07/14 07:35:22;;;;;;;4.20;3.50;;;;;;;31.15;100.00;99647.19;105833;1264;74334;-66
2023/07/14 07:37:49;;;;;;;5.70;4.10;;;;;;;30.69;100.00;99649.26;106114;1253;66117;-64
2023/07/14 07:40:17;;;;;;;6.40;4.20;;;;;;;30.34;100.00;99642.29;106141;1255;72482;-64
2023/07/14 07:42:44;;;;;;;5.90;4.60;;;;;;;30.16;100.00;99640.33;105892;1263;60508;-64
2023/07/14 07:45:11;;;;;;;6.90;4.60;;;;;;;30.06;100.00;99635.11;105985;1250;60469;-67
2023/07/14 07:47:39;;;;;;;7.40;4.30;;;;;;;30.01;100.00;99634.67;105556;1257;73852;-65
2023/07/14 07:50:07;;;;;;;6.20;5.30;;;;;;;29.89;100.00;99632.23;105937;1256;65755;-66
2023/07/14 07:52:35;;;;;;;8.00;6.20;;;;;;;29.70;100.00;99627.55;105611;1255;72653;-67
2023/07/14 07:55:03;;;;;;;7.10;5.50;;;;;;;29.65;100.00;99624.95;106219;1256;60433;-66
2023/07/14 07:57:31;;;;;;;11.20;10.10;;;;;;;29.70;100.00;99623.25;105852;1254;60502;-65
2023/07/14 07:59:59;;;;;;;13.40;11.70;;;;;;;29.80;100.00;99622.00;105912;1259;74190;-65
2023/07/14 08:02:26;;;;;;;15.00;13.60;;;;;;;29.81;100.00;99619.35;106282;1253;65772;-65
2023/07/14 08:04:54;;;;;;;18.30;16.70;;;;;;;29.78;100.00;99617.95;105648;1256;72600;-64
2023/07/14 08:07:21;;;;;;;19.20;17.60;;;;;;;29.67;100.00;99618.30;105581;1254;60527;-67
2023/07/14 08:09:54;;;;;;;28.40;26.10;;;;;;;29.42;100.00;99613.85;105476;1257;60479;-64
2023/07/14 08:12:22;;;;;;;29.90;27.30;;;;;;;29.06;100.00;99611.14;105699;1251;72538;-65
2023/07/14 08:14:53;;;;;;;43.40;39.90;;;;;;;28.69;100.00;99606.00;105575;1255;65763;-65
2023/07/14 08:17:25;;;;;;;68.00;62.50;;;;;;;28.32;100.00;99606.48;105379;1256;71326;-66
2023/07/14 08:19:53;;;;;;;108.60;98.50;;;;;;;27.88;100.00;99603.12;106013;1251;60421;-63
2023/07/14 08:22:21;;;;;;;134.30;120.40;;;;;;;27.57;100.00;99612.46;105633;1255;60448;-65
2023/07/14 08:24:48;;;;;;;170.30;151.60;;;;;;;27.35;100.00;99609.77;105449;1259;73856;-64
2023/07/14 08:27:15;;;;;;;203.10;181.10;;;;;;;27.18;100.00;99612.02;105633;1257;65935;-68
2023/07/14 08:29:43;;;;;;;258.70;230.20;;;;;;;27.02;100.00;99615.67;105339;1254;72648;-64
2023/07/14 08:32:11;;;;;;;350.20;309.50;;;;;;;26.82;100.00;99614.96;105333;1254;60412;-66
2023/07/14 08:34:37;;;;;;;308.50;260.20;;;;;;;26.65;100.00;99616.20;105249;1255;60430;-64
2023/07/14 08:37:04;;;;;;;419.30;347.10;;;;;;;26.51;100.00;99618.84;106089;1254;74024;-64
2023/07/14 08:39:32;;;;;;;417.10;329.30;;;;;;;26.33;100.00;99622.86;106261;1251;65766;-68
2023/07/14 08:42:06;;;;;;;497.60;397.30;;;;;;;26.15;100.00;99627.28;105529;1256;71514;-65
2023/07/14 08:45:07;;;;;;;405.70;343.10;;;;;;;26.03;100.00;99627.34;105317;1259;60535;-64
2023/07/14 08:47:58;;;;;;;389.50;301.20;;;;;;;25.93;100.00;99619.91;105317;1265;60406;-64
2023/07/14 08:50:28;;;;;;;599.40;468.80;;;;;;;25.84;100.00;99610.77;105997;1256;73046;-68
2023/07/14 08:53:03;;;;;;;552.70;431.30;;;;;;;25.81;100.00;99606.40;105446;1256;68026;-67
2023/07/14 08:55:32;;;;;;;558.00;425.00;;;;;;;25.86;100.00;99605.79;105305;1251;72683;-65
2023/07/14 08:58:05;;;;;;;667.10;490.60;;;;;;;25.99;100.00;99610.87;105518;1256;60603;-65
2023/07/14 09:00:37;;;;;;;518.50;393.50;;;;;;;26.05;100.00;99602.98;106117;1251;60350;-67
2023/07/14 09:03:29;;;;;;;599.90;453.20;;;;;;;26.11;100.00;99600.92;105775;1257;72701;-64
2023/07/14 09:06:01;;;;;;;439.30;300.80;;;;;;;26.18;100.00;99596.70;105747;1251;67591;-67
2023/07/14 09:08:29;;;;;;;674.70;504.00;;;;;;;26.26;100.00;99594.33;105425;1259;72779;-64
2023/07/14 09:11:10;;;;;;;391.80;268.60;;;;;;;26.32;100.00;99590.32;105574;1255;60434;-64
2023/07/14 09:14:05;;;;;;;542.70;350.50;;;;;;;26.44;100.00;99583.97;105574;1254;60271;-63
2023/07/14 09:16:35;;;;;;;678.70;500.40;;;;;;;26.56;100.00;99575.98;105674;1254;73805;-64
2023/07/14 09:19:16;;;;;;;697.10;496.10;;;;;;;26.71;100.00;99574.50;106569;1254;67283;-65
2023/07/14 09:21:56;;;;;;;730.60;514.20;;;;;;;26.95;100.00;99575.83;106152;1255;73288;-67
2023/07/14 09:24:45;;;;;;;744.70;496.90;;;;;;;27.15;100.00;99568.09;106147;1254;60290;-67
2023/07/14 09:27:19;;;;;;;603.50;443.60;;;;;;;27.39;100.00;99558.28;105909;1251;59615;-64
2023/07/14 09:29:45;;;;;;;522.50;393.10;;;;;;;27.64;100.00;99549.92;106606;1254;74257;-65
2023/07/14 09:32:25;;;;;;;346.00;259.30;;;;;;;27.82;100.00;99542.50;105617;1255;65903;-67
2023/07/14 09:35:18;;;;;;;556.40;449.50;;;;;;;27.98;100.00;99539.08;106094;1259;72398;-67
2023/07/14 09:38:03;;;;;;;492.20;384.10;;;;;;;28.05;100.00;99537.17;105428;1251;60384;-65
2023/07/14 09:40:34;;;;;;;563.20;439.10;;;;;;;28.10;100.00;99540.67;105813;1254;60348;-67
2023/07/14 09:43:02;;;;;;;453.80;335.20;;;;;;;28.18;100.00;99533.71;105669;1259;73728;-67
2023/07/14 09:45:31;;;;;;;396.30;305.30;;;;;;;28.36;100.00;99525.60;106101;1254;66408;-64
2023/07/14 09:48:15;;;;;;;415.90;307.00;;;;;;;28.63;100.00;99517.84;106116;1256;71861;-65
2023/07/14 09:51:02;;;;;;;407.20;325.00;;;;;;;28.97;100.00;99518.83;105632;1257;60453;-65
2023/07/14 09:53:33;;;;;;;297.00;264.40;;;;;;;29.44;100.00;99517.66;105637;1255;60944;-65
2023/07/14 09:56:03;;;;;;;264.50;219.10;;;;;;;29.80;100.00;99517.90;105970;1254;74430;-68
2023/07/14 09:58:31;;;;;;;285.30;248.50;;;;;;;29.93;100.00;99516.91;105665;1254;66039;-65
2023/07/14 10:01:04;;;;;;;189.30;156.80;;;;;;;29.90;100.00;99513.80;106284;1251;73273;-65
2023/07/14 10:03:42;;;;;;;173.30;154.60;;;;;;;29.85;100.00;99510.50;106051;1251;60561;-66
2023/07/14 10:06:26;;;;;;;185.60;153.60;;;;;;;29.86;100.00;99506.00;105528;1251;60446;-67
2023/07/14 10:08:57;;;;;;;141.00;125.70;;;;;;;29.89;100.00;99503.35;105589;1257;73749;-65
2023/07/14 10:11:29;;;;;;;170.40;152.10;;;;;;;29.96;100.00;99498.61;105834;1254;65714;-70
2023/07/14 10:14:00;;;;;;;146.70;132.00;;;;;;;30.13;100.00;99499.73;105524;1251;72987;-67
2023/07/14 10:16:29;;;;;;;133.10;114.90;;;;;;;30.29;100.00;99496.15;105685;1257;60510;-65
2023/07/14 10:18:58;;;;;;;112.20;100.60;;;;;;;30.35;100.00;99494.88;105504;1251;60429;-66
2023/07/14 10:21:30;;;;;;;126.30;112.60;;;;;;;30.40;100.00;99491.04;105815;1256;73814;-68
2023/07/14 10:24:05;;;;;;;108.20;96.90;;;;;;;30.48;100.00;99488.94;106204;1256;66315;-66
2023/07/14 10:26:35;;;;;;;96.90;86.50;;;;;;;30.51;100.00;99490.09;105496;1254;72722;-66
2023/07/14 10:29:15;;;;;;;135.50;121.70;;;;;;;30.37;100.00;99482.86;105569;1256;60527;-68
2023/07/14 10:31:53;;;;;;;120.00;105.50;;;;;;;30.13;100.00;99477.23;105489;1253;60409;-66
2023/07/14 10:34:25;;;;;;;121.70;109.00;;;;;;;29.82;100.00;99481.23;105646;1255;73751;-66
2023/07/14 10:36:56;;;;;;;160.40;143.60;;;;;;;29.53;100.00;99478.48;105807;1254;67822;-66
2023/07/14 10:39:31;;;;;;;144.50;128.50;;;;;;;29.34;100.00;99477.02;105473;1254;71019;-65
2023/07/14 10:41:59;;;;;;;166.50;137.40;;;;;;;29.32;100.00;99474.64;105613;1256;60805;-65
2023/07/14 10:44:28;;;;;;;158.00;141.80;;;;;;;29.37;100.00;99470.35;106110;1251;60436;-66
2023/07/14 10:46:58;;;;;;;209.80;182.50;;;;;;;29.47;100.00;99460.67;106753;1251;74389;-66
2023/07/14 10:49:40;;;;;;;192.90;162.40;;;;;;;29.60;100.00;99456.85;105260;1251;66696;-66
2023/07/14 10:52:17;;;;;;;151.70;135.20;;;;;;;29.80;100.00;99454.12;105159;1254;72728;-66
2023/07/14 10:55:03;;;;;;;187.00;166.70;;;;;;;30.04;100.00;99449.73;107173;1251;60326;-66
2023/07/14 10:57:49;;;;;;;150.70;131.20;;;;;;;30.23;100.00;99443.65;106126;1251;60987;-65
2023/07/14 11:00:27;;;;;;;171.90;153.60;;;;;;;30.35;100.00;99447.62;105329;1257;74451;-65
2023/07/14 11:03:19;;;;;;;162.10;142.10;;;;;;;30.37;100.00;99443.61;105940;1254;65699;-64
2023/07/14 11:05:57;;;;;;;171.00;154.00;;;;;;;30.29;100.00;99445.60;105981;1257;72461;-66
2023/07/14 11:08:26;;;;;;;118.00;105.50;;;;;;;30.16;100.00;99444.46;106213;1254;60341;-64
2023/07/14 11:10:56;;;;;;;126.80;114.00;;;;;;;30.02;100.00;99444.08;105971;1254;60983;-67
2023/07/14 11:13:27;;;;;;;119.60;107.10;;;;;;;29.91;100.00;99445.98;105710;1254;74128;-64